Friday, October 31, 2014
07:05 UTC
  |  Log In   |  Register Free
Airport Search:

Seattle-Tacoma International Airport
(KSEA)

FAA data valid effective September 18, 2014 - November 13, 2014 (unless otherwise noted).

 
 
 
 
 
 
 
 
 
 
 
 
 
 

Current Aviation Weather for Seattle-Tacoma International Airport (KSEA)

The most recent METAR observation for KSEA was updated at: 0615
METAR Summary (Translated METAR)
KSEA
310553Z 18005KT 10SM -RA OVC036 12/11 A2978 RMK AO2 RAB39 SLP090 P0001 60032 T01220111 10139 20122 58003
KRNT
310553Z AUTO 13003KT 10SM -RA OVC036 13/12 A2977 RMK AO2 RAB30 SLP085 P0001 60045 T01280122 10150 20128 58004
(4.6 nm NE from KSEA)
KBFI
310553Z 14006KT 10SM OVC042 14/11 A2977 RMK AO2 RAB43E52 SLP079 P0000 60017 T01440111 10161 20144 58000
(4.9 nm NE from KSEA)
TAF Summary (Translated TAF)
KSEA
310520Z 3106/0112 18008KT P6SM -SHRA SCT020 OVC040 TEMPO 3106/3110 -SHRA BKN020 OVC040 FM312000 21008KT P6SM VCSH SCT030 BKN050
KBFI
(4.9 nm NE from KSEA)
310520Z 3106/0106 16006KT P6SM -SHRA SCT025 OVC050 TEMPO 3106/3110 -SHRA BKN025 OVC050 FM312000 21008KT P6SM VCSH SCT030 BKN050
  Airport Weather Conditions for KSEA

 Current Weather at SEA
54° F
Light Rain
South winds at 5.8 mph
SEA NOAA Radar

Pressure: 29.78 in
Humidity: 93%
Wind: South at 5.8 MPH (5 KT)
Dew Point: 52.0°F
Visibility: 10.00 mi


Airport Weather Forecast for KSEA

Translated METAR and TAF for KSEA
Translated METAR for KSEA (0701 UTC 31 October 2014)
found at http://aviationweather.gov/adds/metars/
 
METAR text: KSEA 310653Z 15006KT 9SM -RA OVC037 12/11 A2979 RMK AO2 SLP093 P0005 T01170106
Conditions at: KSEA (SEATTLE/METRO , WA, US) observed 0653 UTC 31 October 2014
Temperature: 11.7°C (53°F)
Dewpoint: 10.6°C (51°F) [RH = 93%]
Pressure (altimeter): 29.79 inches Hg (1008.9 mb)
[Sea-level pressure: 1009.3 mb]
Winds: from the SSE (150 degrees) at 7 MPH (6 knots; 3.1 m/s)
Visibility: 9 miles (14 km)
Ceiling: 3700 feet AGL
Clouds: overcast cloud deck at 3700 feet AGL
Weather: -RA  (light rain)
Translated TAF for KSEA
Forecast for: KSEA (SEATTLE/METRO , WA, US)
TAF Text: KSEA 310520Z 3106/0112 18008KT P6SM -SHRA SCT020 OVC040
Forecast period: 0600 to 2000 UTC 31 October 2014
Forecast type: FROM: standard forecast or significant change
Winds: from the S (180 degrees) at 9 MPH (8 knots; 4.2 m/s)
Visibility: 6 or more miles (10+ km)
Ceiling: 4000 feet AGL
Clouds: scattered clouds at 2000 feet AGL
overcast cloud deck at 4000 feet AGL
Weather: -SHRA  (light rain showers)
TAF Text: TEMPO 3106/3110 -SHRA BKN020 OVC040
Forecast period: 0600 to 1000 UTC 31 October 2014
Forecast type: TEMPORARY: The following changes expected for less than half the time period
Ceiling: 2000 feet AGL
Clouds: broken clouds at 2000 feet AGL
overcast cloud deck at 4000 feet AGL
Weather: -SHRA  (light rain showers)
TAF Text: FM312000 21008KT P6SM VCSH SCT030 BKN050
Forecast period: 2000 UTC 31 October 2014 to 1200 UTC 01 November 2014
Forecast type: FROM: standard forecast or significant change
Winds: from the SSW (210 degrees) at 9 MPH (8 knots; 4.2 m/s)
Visibility: 6 or more miles (10+ km)
Ceiling: 5000 feet AGL
Clouds: scattered clouds at 3000 feet AGL
broken clouds at 5000 feet AGL
Weather: VCSH  (showers in vicinity)

Find All Airport Services Find A Hotel Find A Rental Car Find A Golf Course Find A Restaurant $100 Hamburger



FBO's on the Field
FBO Company Facility Photos Services Transportation Aviation Fuel Prices: Prices include tax
Catering Weather Repair Courtesy Rental Type 100LL JetA JetA+ MOGAS 8087
 
Aircraft Service Intl.

This FBO has not yet been rated
FS:Avfuel
Last Updated: Oct-10
Login to update fuel prices
SS:
Contact Aircraft Service Intl.More FBO Information
 
Add another FBO Facility Photos Catering Weather Repair Courtesy Rental Type 100LL JetA JetA+ MOGAS 8087
Services Transportation Aviation Fuel Prices: Prices include tax


model-print
model-print
model-print
model-print